sensor_id;sensor_type;location;lat;lon;timestamp;pressure;altitude;pressure_sealevel;temperature;humidity
4972;BME280;2501;51.214;6.768;2022-07-23T00:00:53;101384.66;;;18.23;nan
4972;BME280;2501;51.214;6.768;2022-07-23T00:03:22;101367.69;;;18.83;nan
4972;BME280;2501;51.214;6.768;2022-07-23T00:05:50;101370.94;;;18.82;nan
4972;BME280;2501;51.214;6.768;2022-07-23T00:08:19;101366.84;;;19.10;nan
4972;BME280;2501;51.214;6.768;2022-07-23T00:10:47;101370.75;;;19.16;nan
4972;BME280;2501;51.214;6.768;2022-07-23T00:13:15;101371.19;;;18.91;nan
4972;BME280;2501;51.214;6.768;2022-07-23T00:15:44;101372.97;;;18.81;nan
4972;BME280;2501;51.214;6.768;2022-07-23T00:18:15;101370.97;;;18.78;nan
4972;BME280;2501;51.214;6.768;2022-07-23T00:20:43;101362.22;;;18.76;nan
4972;BME280;2501;51.214;6.768;2022-07-23T00:23:12;101362.03;;;18.87;nan
4972;BME280;2501;51.214;6.768;2022-07-23T00:25:40;101358.63;;;18.76;nan
4972;BME280;2501;51.214;6.768;2022-07-23T00:28:10;101356.28;;;18.71;nan
4972;BME280;2501;51.214;6.768;2022-07-23T00:30:39;101352.56;;;18.54;nan
4972;BME280;2501;51.214;6.768;2022-07-23T00:33:08;101348.25;;;18.46;nan
4972;BME280;2501;51.214;6.768;2022-07-23T00:35:40;101353.44;;;18.48;nan
4972;BME280;2501;51.214;6.768;2022-07-23T00:38:09;101356.47;;;18.60;nan
4972;BME280;2501;51.214;6.768;2022-07-23T00:40:38;101348.78;;;18.64;nan
4972;BME280;2501;51.214;6.768;2022-07-23T00:43:07;101352.00;;;18.63;nan
4972;BME280;2501;51.214;6.768;2022-07-23T00:45:36;101348.47;;;18.59;nan
4972;BME280;2501;51.214;6.768;2022-07-23T00:48:05;101350.97;;;18.53;nan
4972;BME280;2501;51.214;6.768;2022-07-23T00:50:33;101349.09;;;18.43;nan
4972;BME280;2501;51.214;6.768;2022-07-23T00:53:05;101355.78;;;18.53;nan
4972;BME280;2501;51.214;6.768;2022-07-23T00:55:34;101358.19;;;18.54;nan
4972;BME280;2501;51.214;6.768;2022-07-23T00:58:02;101375.19;;;18.67;nan
4972;BME280;2501;51.214;6.768;2022-07-23T01:00:31;101377.47;;;18.49;nan
4972;BME280;2501;51.214;6.768;2022-07-23T01:03:00;101376.16;;;18.57;nan
4972;BME280;2501;51.214;6.768;2022-07-23T01:05:28;101377.63;;;18.38;nan
4972;BME280;2501;51.214;6.768;2022-07-23T01:07:57;101370.78;;;18.39;nan
4972;BME280;2501;51.214;6.768;2022-07-23T01:10:31;101375.75;;;18.28;nan
4972;BME280;2501;51.214;6.768;2022-07-23T01:13:01;101380.09;;;18.32;nan
4972;BME280;2501;51.214;6.768;2022-07-23T01:15:30;101381.78;;;18.26;nan
4972;BME280;2501;51.214;6.768;2022-07-23T01:17:58;101367.78;;;18.26;nan
4972;BME280;2501;51.214;6.768;2022-07-23T01:20:27;101378.50;;;18.31;nan
4972;BME280;2501;51.214;6.768;2022-07-23T01:22:58;101371.28;;;18.34;nan
4972;BME280;2501;51.214;6.768;2022-07-23T01:25:26;101373.63;;;18.35;nan
4972;BME280;2501;51.214;6.768;2022-07-23T01:27:55;101373.63;;;18.35;nan
4972;BME280;2501;51.214;6.768;2022-07-23T01:30:23;101374.88;;;18.34;nan
4972;BME280;2501;51.214;6.768;2022-07-23T01:32:52;101373.56;;;18.42;nan
4972;BME280;2501;51.214;6.768;2022-07-23T01:35:20;101371.16;;;18.41;nan
4972;BME280;2501;51.214;6.768;2022-07-23T01:37:49;101367.34;;;18.58;nan
4972;BME280;2501;51.214;6.768;2022-07-23T01:40:21;101370.97;;;18.55;nan
4972;BME280;2501;51.214;6.768;2022-07-23T01:42:49;101361.03;;;18.47;nan
4972;BME280;2501;51.214;6.768;2022-07-23T01:45:18;101346.22;;;18.47;nan
4972;BME280;2501;51.214;6.768;2022-07-23T01:47:46;101353.47;;;18.44;nan
4972;BME280;2501;51.214;6.768;2022-07-23T01:50:15;101348.66;;;18.95;nan
4972;BME280;2501;51.214;6.768;2022-07-23T01:52:43;101348.94;;;19.23;nan
4972;BME280;2501;51.214;6.768;2022-07-23T01:55:12;101344.63;;;19.19;nan
4972;BME280;2501;51.214;6.768;2022-07-23T01:57:43;101342.19;;;19.21;nan
4972;BME280;2501;51.214;6.768;2022-07-23T02:00:12;101341.22;;;19.08;nan
4972;BME280;2501;51.214;6.768;2022-07-23T02:02:40;101349.94;;;18.90;nan
4972;BME280;2501;51.214;6.768;2022-07-23T02:05:09;101349.59;;;18.88;nan
4972;BME280;2501;51.214;6.768;2022-07-23T02:07:37;101356.13;;;18.81;nan
4972;BME280;2501;51.214;6.768;2022-07-23T02:10:07;101350.81;;;18.64;nan
4972;BME280;2501;51.214;6.768;2022-07-23T02:12:36;101364.16;;;18.56;nan
4972;BME280;2501;51.214;6.768;2022-07-23T02:15:08;101356.59;;;18.53;nan
4972;BME280;2501;51.214;6.768;2022-07-23T02:17:36;101354.97;;;18.25;nan
4972;BME280;2501;51.214;6.768;2022-07-23T02:20:08;101355.56;;;18.67;nan
4972;BME280;2501;51.214;6.768;2022-07-23T02:22:37;101353.88;;;18.73;nan
4972;BME280;2501;51.214;6.768;2022-07-23T02:25:07;101351.00;;;18.50;nan
4972;BME280;2501;51.214;6.768;2022-07-23T02:27:37;101348.69;;;18.44;nan
4972;BME280;2501;51.214;6.768;2022-07-23T02:30:09;101356.06;;;18.31;nan
4972;BME280;2501;51.214;6.768;2022-07-23T02:32:38;101354.72;;;18.70;nan
4972;BME280;2501;51.214;6.768;2022-07-23T02:35:07;101347.66;;;18.31;nan
4972;BME280;2501;51.214;6.768;2022-07-23T02:37:36;101352.44;;;18.34;nan
4972;BME280;2501;51.214;6.768;2022-07-23T02:40:06;101343.19;;;18.37;nan
4972;BME280;2501;51.214;6.768;2022-07-23T02:42:35;101343.59;;;18.63;nan
4972;BME280;2501;51.214;6.768;2022-07-23T02:45:04;101344.72;;;18.42;nan
4972;BME280;2501;51.214;6.768;2022-07-23T02:47:36;101352.44;;;18.34;nan
4972;BME280;2501;51.214;6.768;2022-07-23T02:50:06;101349.19;;;18.36;nan
4972;BME280;2501;51.214;6.768;2022-07-23T02:52:34;101350.41;;;18.35;nan
4972;BME280;2501;51.214;6.768;2022-07-23T02:55:04;101358.25;;;18.20;nan
4972;BME280;2501;51.214;6.768;2022-07-23T02:57:33;101353.88;;;18.46;nan
4972;BME280;2501;51.214;6.768;2022-07-23T03:00:02;101350.13;;;18.56;nan
4972;BME280;2501;51.214;6.768;2022-07-23T03:02:31;101355.81;;;18.49;nan
4972;BME280;2501;51.214;6.768;2022-07-23T03:05:03;101349.09;;;18.43;nan
4972;BME280;2501;51.214;6.768;2022-07-23T03:07:31;101349.00;;;18.50;nan
4972;BME280;2501;51.214;6.768;2022-07-23T03:10:00;101345.88;;;18.44;nan
4972;BME280;2501;51.214;6.768;2022-07-23T03:12:28;101348.00;;;18.37;nan
4972;BME280;2501;51.214;6.768;2022-07-23T03:14:57;101352.63;;;18.47;nan
4972;BME280;2501;51.214;6.768;2022-07-23T03:17:28;101356.28;;;18.44;nan
4972;BME280;2501;51.214;6.768;2022-07-23T03:19:57;101356.88;;;18.32;nan
4972;BME280;2501;51.214;6.768;2022-07-23T03:22:28;101355.09;;;18.18;nan
4972;BME280;2501;51.214;6.768;2022-07-23T03:24:57;101360.06;;;18.07;nan
4972;BME280;2501;51.214;6.768;2022-07-23T03:27:26;101352.22;;;18.22;nan
4972;BME280;2501;51.214;6.768;2022-07-23T03:29:57;101361.91;;;18.17;nan
4972;BME280;2501;51.214;6.768;2022-07-23T03:32:26;101361.78;;;18.24;nan
4972;BME280;2501;51.214;6.768;2022-07-23T03:34:55;101357.88;;;18.18;nan
4972;BME280;2501;51.214;6.768;2022-07-23T03:37:24;101362.94;;;18.00;nan
4972;BME280;2501;51.214;6.768;2022-07-23T03:39:55;101369.22;;;17.77;nan
4972;BME280;2501;51.214;6.768;2022-07-23T03:42:23;101365.38;;;17.64;nan
4972;BME280;2501;51.214;6.768;2022-07-23T03:44:52;101366.66;;;17.60;nan
4972;BME280;2501;51.214;6.768;2022-07-23T03:47:20;101372.28;;;17.56;nan
4972;BME280;2501;51.214;6.768;2022-07-23T03:49:49;101368.13;;;17.71;nan
4972;BME280;2501;51.214;6.768;2022-07-23T03:52:18;101365.31;;;17.71;nan
4972;BME280;2501;51.214;6.768;2022-07-23T03:54:46;101362.72;;;17.50;nan
4972;BME280;2501;51.214;6.768;2022-07-23T03:57:17;101369.06;;;17.58;nan
4972;BME280;2501;51.214;6.768;2022-07-23T03:59:46;101356.91;;;17.34;nan
4972;BME280;2501;51.214;6.768;2022-07-23T04:02:14;101353.91;;;17.52;nan
4972;BME280;2501;51.214;6.768;2022-07-23T04:04:43;101358.56;;;17.65;nan
4972;BME280;2501;51.214;6.768;2022-07-23T04:07:12;101371.13;;;17.50;nan
4972;BME280;2501;51.214;6.768;2022-07-23T04:09:40;101372.91;;;17.71;nan
4972;BME280;2501;51.214;6.768;2022-07-23T04:12:08;101382.00;;;17.41;nan
4972;BME280;2501;51.214;6.768;2022-07-23T04:14:40;101379.13;;;17.52;nan
4972;BME280;2501;51.214;6.768;2022-07-23T04:17:08;101389.94;;;17.87;nan
4972;BME280;2501;51.214;6.768;2022-07-23T04:19:37;101384.38;;;17.83;nan
4972;BME280;2501;51.214;6.768;2022-07-23T04:22:07;101384.41;;;17.42;nan
4972;BME280;2501;51.214;6.768;2022-07-23T04:24:35;101380.06;;;17.38;nan
4972;BME280;2501;51.214;6.768;2022-07-23T04:27:04;101370.94;;;17.30;nan
4972;BME280;2501;51.214;6.768;2022-07-23T04:29:33;101384.97;;;17.68;nan
4972;BME280;2501;51.214;6.768;2022-07-23T04:32:04;101385.97;;;17.47;nan
4972;BME280;2501;51.214;6.768;2022-07-23T04:34:33;101386.69;;;17.55;nan
4972;BME280;2501;51.214;6.768;2022-07-23T04:37:02;101393.03;;;17.62;nan
4972;BME280;2501;51.214;6.768;2022-07-23T04:39:30;101395.91;;;17.52;nan
4972;BME280;2501;51.214;6.768;2022-07-23T04:41:59;101399.97;;;17.47;nan
4972;BME280;2501;51.214;6.768;2022-07-23T04:44:27;101408.19;;;17.65;nan
4972;BME280;2501;51.214;6.768;2022-07-23T04:46:55;101405.88;;;17.56;nan
4972;BME280;2501;51.214;6.768;2022-07-23T04:49:27;101409.69;;;17.73;nan
4972;BME280;2501;51.214;6.768;2022-07-23T04:51:55;101410.72;;;17.48;nan
4972;BME280;2501;51.214;6.768;2022-07-23T04:54:23;101420.75;;;17.46;nan
4972;BME280;2501;51.214;6.768;2022-07-23T04:56:52;101414.75;;;17.47;nan
4972;BME280;2501;51.214;6.768;2022-07-23T04:59:20;101430.97;;;17.67;nan
4972;BME280;2501;51.214;6.768;2022-07-23T05:01:49;101423.59;;;17.42;nan
4972;BME280;2501;51.214;6.768;2022-07-23T05:04:17;101422.31;;;17.50;nan
4972;BME280;2501;51.214;6.768;2022-07-23T05:06:52;101426.75;;;17.85;nan
4972;BME280;2501;51.214;6.768;2022-07-23T05:09:23;101424.13;;;17.71;nan
4972;BME280;2501;51.214;6.768;2022-07-23T05:11:51;101417.59;;;17.44;nan
4972;BME280;2501;51.214;6.768;2022-07-23T05:14:20;101429.03;;;17.64;nan
4972;BME280;2501;51.214;6.768;2022-07-23T05:16:48;101436.94;;;17.69;nan
4972;BME280;2501;51.214;6.768;2022-07-23T05:19:17;101436.31;;;17.88;nan
4972;BME280;2501;51.214;6.768;2022-07-23T05:21:46;101432.59;;;17.64;nan
4972;BME280;2501;51.214;6.768;2022-07-23T05:24:17;101440.47;;;17.76;nan
4972;BME280;2501;51.214;6.768;2022-07-23T05:26:45;101441.44;;;17.96;nan
4972;BME280;2501;51.214;6.768;2022-07-23T05:29:14;101448.22;;;17.99;nan
4972;BME280;2501;51.214;6.768;2022-07-23T05:31:42;101440.59;;;18.00;nan
4972;BME280;2501;51.214;6.768;2022-07-23T05:34:10;101444.81;;;17.81;nan
4972;BME280;2501;51.214;6.768;2022-07-23T05:36:39;101439.63;;;18.13;nan
4972;BME280;2501;51.214;6.768;2022-07-23T05:39:07;101436.38;;;18.18;nan
4972;BME280;2501;51.214;6.768;2022-07-23T05:41:39;101440.72;;;18.23;nan
4972;BME280;2501;51.214;6.768;2022-07-23T05:44:07;101437.28;;;18.08;nan
4972;BME280;2501;51.214;6.768;2022-07-23T05:46:36;101446.41;;;18.46;nan
4972;BME280;2501;51.214;6.768;2022-07-23T05:49:04;101443.88;;;18.55;nan
4972;BME280;2501;51.214;6.768;2022-07-23T05:51:33;101442.84;;;18.72;nan
4972;BME280;2501;51.214;6.768;2022-07-23T05:54:01;101444.72;;;18.79;nan
4972;BME280;2501;51.214;6.768;2022-07-23T05:56:34;101447.00;;;18.87;nan
4972;BME280;2501;51.214;6.768;2022-07-23T05:59:06;101439.44;;;18.84;nan
4972;BME280;2501;51.214;6.768;2022-07-23T06:01:35;101444.81;;;18.99;nan
4972;BME280;2501;51.214;6.768;2022-07-23T06:04:05;101441.53;;;19.04;nan
4972;BME280;2501;51.214;6.768;2022-07-23T06:06:33;101449.53;;;18.78;nan
4972;BME280;2501;51.214;6.768;2022-07-23T06:09:02;101454.78;;;19.03;nan
4972;BME280;2501;51.214;6.768;2022-07-23T06:11:31;101454.91;;;19.19;nan
4972;BME280;2501;51.214;6.768;2022-07-23T06:14:01;101457.31;;;19.21;nan
4972;BME280;2501;51.214;6.768;2022-07-23T06:16:32;101447.03;;;19.34;nan
4972;BME280;2501;51.214;6.768;2022-07-23T06:19:00;101448.88;;;19.21;nan
4972;BME280;2501;51.214;6.768;2022-07-23T06:21:29;101452.13;;;19.43;nan
4972;BME280;2501;51.214;6.768;2022-07-23T06:23:57;101454.94;;;19.43;nan
4972;BME280;2501;51.214;6.768;2022-07-23T06:26:26;101451.44;;;19.58;nan
4972;BME280;2501;51.214;6.768;2022-07-23T06:28:54;101454.25;;;19.12;nan
4972;BME280;2501;51.214;6.768;2022-07-23T06:31:23;101452.22;;;19.35;nan
4972;BME280;2501;51.214;6.768;2022-07-23T06:33:54;101450.22;;;19.13;nan
4972;BME280;2501;51.214;6.768;2022-07-23T06:36:22;101452.63;;;19.11;nan
4972;BME280;2501;51.214;6.768;2022-07-23T06:38:51;101455.22;;;19.71;nan
4972;BME280;2501;51.214;6.768;2022-07-23T06:41:19;101450.66;;;19.77;nan
4972;BME280;2501;51.214;6.768;2022-07-23T06:43:48;101458.72;;;19.56;nan
4972;BME280;2501;51.214;6.768;2022-07-23T06:46:16;101453.69;;;19.67;nan
4972;BME280;2501;51.214;6.768;2022-07-23T06:48:46;101467.06;;;19.59;nan
4972;BME280;2501;51.214;6.768;2022-07-23T06:51:17;101456.56;;;19.63;nan
4972;BME280;2501;51.214;6.768;2022-07-23T06:53:46;101462.88;;;19.48;nan
4972;BME280;2501;51.214;6.768;2022-07-23T06:56:15;101456.91;;;19.65;nan
4972;BME280;2501;51.214;6.768;2022-07-23T06:58:43;101460.38;;;19.73;nan
4972;BME280;2501;51.214;6.768;2022-07-23T07:01:12;101463.06;;;19.80;nan
4972;BME280;2501;51.214;6.768;2022-07-23T07:03:40;101464.38;;;19.95;nan
4972;BME280;2501;51.214;6.768;2022-07-23T07:06:09;101461.28;;;20.09;nan
4972;BME280;2501;51.214;6.768;2022-07-23T07:08:40;101466.16;;;20.25;nan
4972;BME280;2501;51.214;6.768;2022-07-23T07:11:09;101471.78;;;20.25;nan
4972;BME280;2501;51.214;6.768;2022-07-23T07:13:37;101473.53;;;20.19;nan
4972;BME280;2501;51.214;6.768;2022-07-23T07:16:06;101469.16;;;20.38;nan
4972;BME280;2501;51.214;6.768;2022-07-23T07:18:35;101468.41;;;20.14;nan
4972;BME280;2501;51.214;6.768;2022-07-23T07:21:04;101468.09;;;20.48;nan
4972;BME280;2501;51.214;6.768;2022-07-23T07:23:32;101467.75;;;20.06;nan
4972;BME280;2501;51.214;6.768;2022-07-23T07:26:04;101468.56;;;20.62;nan
4972;BME280;2501;51.214;6.768;2022-07-23T07:28:32;101472.63;;;20.61;nan
4972;BME280;2501;51.214;6.768;2022-07-23T07:31:01;101471.69;;;20.68;nan
4972;BME280;2501;51.214;6.768;2022-07-23T07:33:30;101473.81;;;20.80;nan
4972;BME280;2501;51.214;6.768;2022-07-23T07:35:58;101473.78;;;20.64;nan
4972;BME280;2501;51.214;6.768;2022-07-23T07:38:27;101479.59;;;20.17;nan
4972;BME280;2501;51.214;6.768;2022-07-23T07:40:55;101484.09;;;20.35;nan
4972;BME280;2501;51.214;6.768;2022-07-23T07:43:26;101483.03;;;20.25;nan
4972;BME280;2501;51.214;6.768;2022-07-23T07:45:55;101483.84;;;20.25;nan
4972;BME280;2501;51.214;6.768;2022-07-23T07:48:24;101489.53;;;20.61;nan
4972;BME280;2501;51.214;6.768;2022-07-23T07:50:53;101479.78;;;20.66;nan
4972;BME280;2501;51.214;6.768;2022-07-23T07:53:21;101480.25;;;20.97;nan
4972;BME280;2501;51.214;6.768;2022-07-23T07:55:50;101479.84;;;21.31;nan
4972;BME280;2501;51.214;6.768;2022-07-23T07:58:18;101476.28;;;21.59;nan
4972;BME280;2501;51.214;6.768;2022-07-23T08:00:50;101469.25;;;21.51;nan
4972;BME280;2501;51.214;6.768;2022-07-23T08:03:18;101467.69;;;21.34;nan
4972;BME280;2501;51.214;6.768;2022-07-23T08:05:47;101467.69;;;21.01;nan
4972;BME280;2501;51.214;6.768;2022-07-23T08:08:15;101476.28;;;21.10;nan
4972;BME280;2501;51.214;6.768;2022-07-23T08:10:44;101486.09;;;21.22;nan
4972;BME280;2501;51.214;6.768;2022-07-23T08:13:13;101486.09;;;21.22;nan
4972;BME280;2501;51.214;6.768;2022-07-23T08:15:43;101484.75;;;21.59;nan
4972;BME280;2501;51.214;6.768;2022-07-23T08:18:15;101473.72;;;21.64;nan
4972;BME280;2501;51.214;6.768;2022-07-23T08:20:43;101473.16;;;21.86;nan
4972;BME280;2501;51.214;6.768;2022-07-23T08:23:12;101465.00;;;22.04;nan
4972;BME280;2501;51.214;6.768;2022-07-23T08:25:44;101487.88;;;21.93;nan
4972;BME280;2501;51.214;6.768;2022-07-23T08:28:14;101490.19;;;21.66;nan
4972;BME280;2501;51.214;6.768;2022-07-23T08:30:43;101486.63;;;21.94;nan
4972;BME280;2501;51.214;6.768;2022-07-23T08:33:16;101486.34;;;21.89;nan
4972;BME280;2501;51.214;6.768;2022-07-23T08:35:47;101497.91;;;21.17;nan
4972;BME280;2501;51.214;6.768;2022-07-23T08:38:17;101501.16;;;21.32;nan
4972;BME280;2501;51.214;6.768;2022-07-23T08:40:49;101504.16;;;21.25;nan
4972;BME280;2501;51.214;6.768;2022-07-23T08:43:20;101498.91;;;21.07;nan
4972;BME280;2501;51.214;6.768;2022-07-23T08:45:49;101497.63;;;21.11;nan
4972;BME280;2501;51.214;6.768;2022-07-23T08:48:22;101490.50;;;21.39;nan
4972;BME280;2501;51.214;6.768;2022-07-23T08:50:52;101490.22;;;21.50;nan
4972;BME280;2501;51.214;6.768;2022-07-23T08:53:23;101506.59;;;21.39;nan
4972;BME280;2501;51.214;6.768;2022-07-23T08:55:54;101492.94;;;21.53;nan
4972;BME280;2501;51.214;6.768;2022-07-23T08:58:24;101492.28;;;21.78;nan
4972;BME280;2501;51.214;6.768;2022-07-23T09:00:53;101496.88;;;21.72;nan
4972;BME280;2501;51.214;6.768;2022-07-23T09:03:25;101498.53;;;21.86;nan
4972;BME280;2501;51.214;6.768;2022-07-23T09:05:55;101494.81;;;21.89;nan
4972;BME280;2501;51.214;6.768;2022-07-23T09:08:25;101493.59;;;21.74;nan
4972;BME280;2501;51.214;6.768;2022-07-23T09:10:56;101479.72;;;21.50;nan
4972;BME280;2501;51.214;6.768;2022-07-23T09:13:33;101478.19;;;21.94;nan
4972;BME280;2501;51.214;6.768;2022-07-23T09:16:05;101488.19;;;21.50;nan
4972;BME280;2501;51.214;6.768;2022-07-23T09:18:46;101479.72;;;22.24;nan
4972;BME280;2501;51.214;6.768;2022-07-23T09:21:18;101486.09;;;21.99;nan
4972;BME280;2501;51.214;6.768;2022-07-23T09:23:50;101479.56;;;22.02;nan
4972;BME280;2501;51.214;6.768;2022-07-23T09:26:31;101472.97;;;21.93;nan
4972;BME280;2501;51.214;6.768;2022-07-23T09:29:08;101478.31;;;22.03;nan
4972;BME280;2501;51.214;6.768;2022-07-23T09:31:48;101477.06;;;22.04;nan
4972;BME280;2501;51.214;6.768;2022-07-23T09:34:21;101472.41;;;22.39;nan
4972;BME280;2501;51.214;6.768;2022-07-23T09:36:52;101479.22;;;22.42;nan
4972;BME280;2501;51.214;6.768;2022-07-23T09:39:28;101479.44;;;22.47;nan
4972;BME280;2501;51.214;6.768;2022-07-23T09:41:57;101475.72;;;22.09;nan
4972;BME280;2501;51.214;6.768;2022-07-23T09:44:27;101481.75;;;22.24;nan
4972;BME280;2501;51.214;6.768;2022-07-23T09:46:58;101472.03;;;23.04;nan
4972;BME280;2501;51.214;6.768;2022-07-23T09:49:31;101483.38;;;23.38;nan
4972;BME280;2501;51.214;6.768;2022-07-23T09:52:01;101484.81;;;23.08;nan
4972;BME280;2501;51.214;6.768;2022-07-23T09:54:32;101483.56;;;22.97;nan
4972;BME280;2501;51.214;6.768;2022-07-23T09:57:06;101486.94;;;23.04;nan
4972;BME280;2501;51.214;6.768;2022-07-23T09:59:39;101476.78;;;22.69;nan
4972;BME280;2501;51.214;6.768;2022-07-23T10:02:09;101478.25;;;23.12;nan
4972;BME280;2501;51.214;6.768;2022-07-23T10:04:41;101480.25;;;23.24;nan
4972;BME280;2501;51.214;6.768;2022-07-23T10:07:10;101479.50;;;22.85;nan
4972;BME280;2501;51.214;6.768;2022-07-23T10:09:40;101480.09;;;23.52;nan
4972;BME280;2501;51.214;6.768;2022-07-23T10:12:11;101479.59;;;23.07;nan
4972;BME280;2501;51.214;6.768;2022-07-23T10:14:56;101473.38;;;22.99;nan
4972;BME280;2501;51.214;6.768;2022-07-23T10:17:28;101467.06;;;23.21;nan
4972;BME280;2501;51.214;6.768;2022-07-23T10:20:00;101469.28;;;23.26;nan
4972;BME280;2501;51.214;6.768;2022-07-23T10:22:31;101467.09;;;23.55;nan
4972;BME280;2501;51.214;6.768;2022-07-23T10:25:11;101459.13;;;23.28;nan
4972;BME280;2501;51.214;6.768;2022-07-23T10:28:06;101460.66;;;23.42;nan
4972;BME280;2501;51.214;6.768;2022-07-23T10:30:45;101462.09;;;23.12;nan
4972;BME280;2501;51.214;6.768;2022-07-23T10:33:30;101458.31;;;23.96;nan
4972;BME280;2501;51.214;6.768;2022-07-23T10:36:08;101452.16;;;23.54;nan
4972;BME280;2501;51.214;6.768;2022-07-23T10:38:46;101457.72;;;23.33;nan
4972;BME280;2501;51.214;6.768;2022-07-23T10:41:30;101448.69;;;23.38;nan
4972;BME280;2501;51.214;6.768;2022-07-23T10:44:07;101448.38;;;23.70;nan
4972;BME280;2501;51.214;6.768;2022-07-23T10:46:53;101458.69;;;23.64;nan
4972;BME280;2501;51.214;6.768;2022-07-23T10:49:29;101449.63;;;23.69;nan
4972;BME280;2501;51.214;6.768;2022-07-23T10:52:19;101457.91;;;23.64;nan
4972;BME280;2501;51.214;6.768;2022-07-23T10:54:49;101451.59;;;23.60;nan
4972;BME280;2501;51.214;6.768;2022-07-23T10:57:24;101445.63;;;23.79;nan
4972;BME280;2501;51.214;6.768;2022-07-23T11:00:20;101448.47;;;24.01;nan
4972;BME280;2501;51.214;6.768;2022-07-23T11:02:50;101451.59;;;23.81;nan
4972;BME280;2501;51.214;6.768;2022-07-23T11:05:21;101452.00;;;23.92;nan
4972;BME280;2501;51.214;6.768;2022-07-23T11:08:14;101445.38;;;24.30;nan
4972;BME280;2501;51.214;6.768;2022-07-23T11:10:45;101457.31;;;24.12;nan
4972;BME280;2501;51.214;6.768;2022-07-23T11:13:40;101444.66;;;23.61;nan
4972;BME280;2501;51.214;6.768;2022-07-23T11:16:17;101453.72;;;24.12;nan
4972;BME280;2501;51.214;6.768;2022-07-23T11:19:08;101457.44;;;24.21;nan
4972;BME280;2501;51.214;6.768;2022-07-23T11:21:47;101452.78;;;23.71;nan
4972;BME280;2501;51.214;6.768;2022-07-23T11:24:21;101450.38;;;24.26;nan
4972;BME280;2501;51.214;6.768;2022-07-23T11:26:56;101454.69;;;24.39;nan
4972;BME280;2501;51.214;6.768;2022-07-23T11:29:38;101456.50;;;24.24;nan
4972;BME280;2501;51.214;6.768;2022-07-23T11:32:11;101461.88;;;24.31;nan
4972;BME280;2501;51.214;6.768;2022-07-23T11:34:49;101449.50;;;24.38;nan
4972;BME280;2501;51.214;6.768;2022-07-23T11:37:42;101456.56;;;24.33;nan
4972;BME280;2501;51.214;6.768;2022-07-23T11:40:16;101453.91;;;24.70;nan
4972;BME280;2501;51.214;6.768;2022-07-23T11:42:54;101445.50;;;24.88;nan
4972;BME280;2501;51.214;6.768;2022-07-23T11:45:24;101445.56;;;24.35;nan
4972;BME280;2501;51.214;6.768;2022-07-23T11:47:53;101446.13;;;24.52;nan
4972;BME280;2501;51.214;6.768;2022-07-23T11:50:23;101446.06;;;24.74;nan
4972;BME280;2501;51.214;6.768;2022-07-23T11:52:53;101447.00;;;25.11;nan
4972;BME280;2501;51.214;6.768;2022-07-23T11:55:26;101444.78;;;24.66;nan
4972;BME280;2501;51.214;6.768;2022-07-23T11:57:55;101439.88;;;24.35;nan
4972;BME280;2501;51.214;6.768;2022-07-23T12:00:26;101444.13;;;24.62;nan
4972;BME280;2501;51.214;6.768;2022-07-23T12:02:57;101450.09;;;24.64;nan
4972;BME280;2501;51.214;6.768;2022-07-23T12:05:29;101450.97;;;24.82;nan
4972;BME280;2501;51.214;6.768;2022-07-23T12:07:59;101434.66;;;24.56;nan
4972;BME280;2501;51.214;6.768;2022-07-23T12:10:34;101444.75;;;24.97;nan
4972;BME280;2501;51.214;6.768;2022-07-23T12:13:05;101433.00;;;25.25;nan
4972;BME280;2501;51.214;6.768;2022-07-23T12:15:38;101427.75;;;24.97;nan
4972;BME280;2501;51.214;6.768;2022-07-23T12:18:18;101443.84;;;25.09;nan
4972;BME280;2501;51.214;6.768;2022-07-23T12:20:49;101442.34;;;24.86;nan
4972;BME280;2501;51.214;6.768;2022-07-23T12:23:23;101428.88;;;24.68;nan
4972;BME280;2501;51.214;6.768;2022-07-23T12:26:00;101428.81;;;24.90;nan
4972;BME280;2501;51.214;6.768;2022-07-23T12:28:35;101431.50;;;24.93;nan
4972;BME280;2501;51.214;6.768;2022-07-23T12:31:05;101437.84;;;24.67;nan
4972;BME280;2501;51.214;6.768;2022-07-23T12:33:36;101444.66;;;25.18;nan
4972;BME280;2501;51.214;6.768;2022-07-23T12:36:07;101443.41;;;25.37;nan
4972;BME280;2501;51.214;6.768;2022-07-23T12:38:38;101449.56;;;25.45;nan
4972;BME280;2501;51.214;6.768;2022-07-23T12:41:09;101439.72;;;25.01;nan
4972;BME280;2501;51.214;6.768;2022-07-23T12:43:40;101445.19;;;25.44;nan
4972;BME280;2501;51.214;6.768;2022-07-23T12:46:10;101440.53;;;25.10;nan
4972;BME280;2501;51.214;6.768;2022-07-23T12:48:50;101440.31;;;25.81;nan
4972;BME280;2501;51.214;6.768;2022-07-23T12:51:20;101448.06;;;25.71;nan
4972;BME280;2501;51.214;6.768;2022-07-23T12:53:50;101449.91;;;25.47;nan
4972;BME280;2501;51.214;6.768;2022-07-23T12:56:27;101450.47;;;25.15;nan
4972;BME280;2501;51.214;6.768;2022-07-23T12:58:58;101446.59;;;25.76;nan
4972;BME280;2501;51.214;6.768;2022-07-23T13:01:29;101449.59;;;26.09;nan
4972;BME280;2501;51.214;6.768;2022-07-23T13:04:01;101452.41;;;26.27;nan
4972;BME280;2501;51.214;6.768;2022-07-23T13:06:33;101449.59;;;26.69;nan
4972;BME280;2501;51.214;6.768;2022-07-23T13:09:03;101444.78;;;27.64;nan
4972;BME280;2501;51.214;6.768;2022-07-23T13:11:35;101450.50;;;28.47;nan
4972;BME280;2501;51.214;6.768;2022-07-23T13:14:04;101448.34;;;28.27;nan
4972;BME280;2501;51.214;6.768;2022-07-23T13:16:33;101454.25;;;28.38;nan
4972;BME280;2501;51.214;6.768;2022-07-23T13:19:02;101457.78;;;28.18;nan
4972;BME280;2501;51.214;6.768;2022-07-23T13:21:32;101455.22;;;27.44;nan
4972;BME280;2501;51.214;6.768;2022-07-23T13:24:01;101445.22;;;29.04;nan
4972;BME280;2501;51.214;6.768;2022-07-23T13:26:29;101455.28;;;28.85;nan
4972;BME280;2501;51.214;6.768;2022-07-23T13:29:00;101441.06;;;28.55;nan
4972;BME280;2501;51.214;6.768;2022-07-23T13:31:29;101442.22;;;28.78;nan
4972;BME280;2501;51.214;6.768;2022-07-23T13:33:58;101441.38;;;28.13;nan
4972;BME280;2501;51.214;6.768;2022-07-23T13:36:26;101434.44;;;28.79;nan
4972;BME280;2501;51.214;6.768;2022-07-23T13:38:55;101428.28;;;28.65;nan
4972;BME280;2501;51.214;6.768;2022-07-23T13:41:23;101430.56;;;28.32;nan
4972;BME280;2501;51.214;6.768;2022-07-23T13:43:52;101430.09;;;28.34;nan
4972;BME280;2501;51.214;6.768;2022-07-23T13:46:24;101423.56;;;27.89;nan
4972;BME280;2501;51.214;6.768;2022-07-23T13:48:53;101429.22;;;27.74;nan
4972;BME280;2501;51.214;6.768;2022-07-23T13:51:21;101425.13;;;28.05;nan